sensor_id;sensor_type;location;lat;lon;timestamp;P1;durP1;ratioP1;P2;durP2;ratioP2
70761;SDS011;58360;0.000;0.000;2023-07-08T00:01:55;8.50;;;4.70;;
70761;SDS011;58360;0.000;0.000;2023-07-08T00:04:20;8.93;;;4.82;;
70761;SDS011;58360;0.000;0.000;2023-07-08T00:06:47;10.98;;;4.50;;
70761;SDS011;58360;0.000;0.000;2023-07-08T00:09:14;8.50;;;4.57;;
70761;SDS011;58360;0.000;0.000;2023-07-08T00:14:33;12.60;;;5.05;;
70761;SDS011;58360;0.000;0.000;2023-07-08T00:26:25;9.15;;;4.95;;
70761;SDS011;58360;0.000;0.000;2023-07-08T00:31:58;12.52;;;5.22;;
70761;SDS011;58360;0.000;0.000;2023-07-08T00:34:23;16.55;;;4.55;;
70761;SDS011;58360;0.000;0.000;2023-07-08T00:39:38;11.05;;;4.85;;
70761;SDS011;58360;0.000;0.000;2023-07-08T00:42:13;10.40;;;4.82;;
70761;SDS011;58360;0.000;0.000;2023-07-08T00:44:44;9.57;;;4.78;;
70761;SDS011;58360;0.000;0.000;2023-07-08T00:47:11;7.35;;;4.20;;
70761;SDS011;58360;0.000;0.000;2023-07-08T00:49:40;7.82;;;4.60;;
70761;SDS011;58360;0.000;0.000;2023-07-08T00:54:44;9.82;;;4.85;;
70761;SDS011;58360;0.000;0.000;2023-07-08T00:57:09;11.88;;;5.07;;
70761;SDS011;58360;0.000;0.000;2023-07-08T00:59:42;9.50;;;4.88;;
70761;SDS011;58360;0.000;0.000;2023-07-08T01:02:15;9.57;;;5.05;;
70761;SDS011;58360;0.000;0.000;2023-07-08T01:04:54;13.25;;;4.60;;
70761;SDS011;58360;0.000;0.000;2023-07-08T01:07:36;9.60;;;4.35;;
70761;SDS011;58360;0.000;0.000;2023-07-08T01:10:05;8.27;;;4.75;;
70761;SDS011;58360;0.000;0.000;2023-07-08T01:12:41;13.45;;;4.93;;
70761;SDS011;58360;0.000;0.000;2023-07-08T01:21:04;10.35;;;4.63;;
70761;SDS011;58360;0.000;0.000;2023-07-08T01:24:09;7.30;;;4.30;;
70761;SDS011;58360;0.000;0.000;2023-07-08T01:26:38;9.70;;;4.65;;
70761;SDS011;58360;0.000;0.000;2023-07-08T01:29:07;10.93;;;4.55;;
70761;SDS011;58360;0.000;0.000;2023-07-08T01:31:33;8.18;;;4.22;;
70761;SDS011;58360;0.000;0.000;2023-07-08T01:37:05;12.23;;;5.20;;
70761;SDS011;58360;0.000;0.000;2023-07-08T01:39:36;8.13;;;4.60;;
70761;SDS011;58360;0.000;0.000;2023-07-08T01:42:01;6.95;;;4.45;;
70761;SDS011;58360;0.000;0.000;2023-07-08T01:44:28;7.38;;;4.18;;
70761;SDS011;58360;0.000;0.000;2023-07-08T01:47:00;9.07;;;4.38;;
70761;SDS011;58360;0.000;0.000;2023-07-08T01:49:31;7.88;;;4.40;;
70761;SDS011;58360;0.000;0.000;2023-07-08T01:51:58;9.63;;;5.07;;
70761;SDS011;58360;0.000;0.000;2023-07-08T01:54:24;8.07;;;4.70;;
70761;SDS011;58360;0.000;0.000;2023-07-08T01:56:54;8.80;;;4.63;;
70761;SDS011;58360;0.000;0.000;2023-07-08T01:59:21;9.27;;;4.90;;
70761;SDS011;58360;0.000;0.000;2023-07-08T02:01:47;9.77;;;4.75;;
70761;SDS011;58360;0.000;0.000;2023-07-08T02:04:17;8.00;;;4.43;;
70761;SDS011;58360;0.000;0.000;2023-07-08T02:12:31;13.27;;;5.05;;
70761;SDS011;58360;0.000;0.000;2023-07-08T02:15:00;11.13;;;5.03;;
70761;SDS011;58360;0.000;0.000;2023-07-08T02:17:26;6.82;;;4.38;;
70761;SDS011;58360;0.000;0.000;2023-07-08T02:19:55;9.95;;;5.35;;
70761;SDS011;58360;0.000;0.000;2023-07-08T02:22:21;11.20;;;4.75;;
70761;SDS011;58360;0.000;0.000;2023-07-08T02:24:47;7.38;;;4.43;;
70761;SDS011;58360;0.000;0.000;2023-07-08T02:27:13;9.40;;;5.00;;
70761;SDS011;58360;0.000;0.000;2023-07-08T02:29:39;9.15;;;4.80;;
70761;SDS011;58360;0.000;0.000;2023-07-08T02:32:05;10.32;;;4.93;;
70761;SDS011;58360;0.000;0.000;2023-07-08T02:34:31;10.02;;;4.95;;
70761;SDS011;58360;0.000;0.000;2023-07-08T02:36:59;10.32;;;4.60;;
70761;SDS011;58360;0.000;0.000;2023-07-08T02:39:24;7.47;;;4.22;;
70761;SDS011;58360;0.000;0.000;2023-07-08T02:41:50;10.60;;;4.63;;
70761;SDS011;58360;0.000;0.000;2023-07-08T02:44:17;8.25;;;4.95;;
70761;SDS011;58360;0.000;0.000;2023-07-08T02:46:42;7.95;;;4.60;;
70761;SDS011;58360;0.000;0.000;2023-07-08T02:49:08;10.48;;;4.82;;
70761;SDS011;58360;0.000;0.000;2023-07-08T02:51:34;8.85;;;4.60;;
70761;SDS011;58360;0.000;0.000;2023-07-08T02:53:59;11.55;;;5.35;;
70761;SDS011;58360;0.000;0.000;2023-07-08T02:56:25;8.95;;;4.72;;
70761;SDS011;58360;0.000;0.000;2023-07-08T02:58:53;7.53;;;4.80;;
70761;SDS011;58360;0.000;0.000;2023-07-08T03:01:19;11.32;;;5.22;;
70761;SDS011;58360;0.000;0.000;2023-07-08T03:03:45;8.32;;;4.95;;
70761;SDS011;58360;0.000;0.000;2023-07-08T03:06:12;8.27;;;5.00;;
70761;SDS011;58360;0.000;0.000;2023-07-08T03:08:37;8.02;;;4.40;;
70761;SDS011;58360;0.000;0.000;2023-07-08T03:14:26;9.07;;;4.70;;
70761;SDS011;58360;0.000;0.000;2023-07-08T03:16:52;10.52;;;4.50;;
70761;SDS011;58360;0.000;0.000;2023-07-08T03:19:17;7.95;;;5.00;;
70761;SDS011;58360;0.000;0.000;2023-07-08T03:21:43;11.27;;;5.03;;
70761;SDS011;58360;0.000;0.000;2023-07-08T03:27:31;8.35;;;4.78;;
70761;SDS011;58360;0.000;0.000;2023-07-08T03:29:57;8.27;;;4.45;;
70761;SDS011;58360;0.000;0.000;2023-07-08T03:32:22;7.40;;;4.53;;
70761;SDS011;58360;0.000;0.000;2023-07-08T03:34:50;9.07;;;4.90;;
70761;SDS011;58360;0.000;0.000;2023-07-08T03:37:16;17.95;;;5.50;;
70761;SDS011;58360;0.000;0.000;2023-07-08T03:39:42;9.48;;;4.82;;
70761;SDS011;58360;0.000;0.000;2023-07-08T03:45:29;10.18;;;4.90;;
70761;SDS011;58360;0.000;0.000;2023-07-08T03:47:55;8.60;;;5.20;;
70761;SDS011;58360;0.000;0.000;2023-07-08T03:50:22;11.57;;;5.00;;
70761;SDS011;58360;0.000;0.000;2023-07-08T03:52:50;12.10;;;5.38;;
70761;SDS011;58360;0.000;0.000;2023-07-08T03:55:17;8.88;;;5.60;;
70761;SDS011;58360;0.000;0.000;2023-07-08T03:57:43;8.75;;;4.88;;
70761;SDS011;58360;0.000;0.000;2023-07-08T04:00:10;10.75;;;4.97;;
70761;SDS011;58360;0.000;0.000;2023-07-08T04:02:39;13.75;;;5.43;;
70761;SDS011;58360;0.000;0.000;2023-07-08T04:05:06;8.05;;;5.10;;
70761;SDS011;58360;0.000;0.000;2023-07-08T04:07:33;8.48;;;5.03;;
70761;SDS011;58360;0.000;0.000;2023-07-08T04:09:59;8.20;;;4.88;;
70761;SDS011;58360;0.000;0.000;2023-07-08T04:15:55;9.23;;;5.32;;
70761;SDS011;58360;0.000;0.000;2023-07-08T04:21:49;8.73;;;4.90;;
70761;SDS011;58360;0.000;0.000;2023-07-08T04:24:16;8.95;;;4.78;;
70761;SDS011;58360;0.000;0.000;2023-07-08T04:26:43;8.82;;;5.20;;
70761;SDS011;58360;0.000;0.000;2023-07-08T04:29:16;9.85;;;5.25;;
70761;SDS011;58360;0.000;0.000;2023-07-08T04:31:43;9.45;;;5.18;;
70761;SDS011;58360;0.000;0.000;2023-07-08T04:34:09;14.10;;;5.10;;
70761;SDS011;58360;0.000;0.000;2023-07-08T04:36:35;12.10;;;5.28;;
70761;SDS011;58360;0.000;0.000;2023-07-08T04:39:02;11.15;;;4.55;;
70761;SDS011;58360;0.000;0.000;2023-07-08T04:41:29;11.00;;;5.00;;
70761;SDS011;58360;0.000;0.000;2023-07-08T04:43:55;9.68;;;5.40;;
70761;SDS011;58360;0.000;0.000;2023-07-08T04:49:54;9.45;;;5.00;;
70761;SDS011;58360;0.000;0.000;2023-07-08T04:52:21;10.02;;;5.30;;
70761;SDS011;58360;0.000;0.000;2023-07-08T04:54:46;10.65;;;5.50;;
70761;SDS011;58360;0.000;0.000;2023-07-08T04:57:12;13.82;;;5.25;;
70761;SDS011;58360;0.000;0.000;2023-07-08T04:59:37;9.30;;;5.22;;
70761;SDS011;58360;0.000;0.000;2023-07-08T05:05:27;10.05;;;5.30;;
70761;SDS011;58360;0.000;0.000;2023-07-08T05:07:53;8.73;;;4.72;;
70761;SDS011;58360;0.000;0.000;2023-07-08T05:13:41;10.55;;;4.90;;
70761;SDS011;58360;0.000;0.000;2023-07-08T05:16:07;12.18;;;5.63;;
70761;SDS011;58360;0.000;0.000;2023-07-08T05:18:32;9.50;;;5.53;;
70761;SDS011;58360;0.000;0.000;2023-07-08T05:20:58;20.52;;;5.93;;
70761;SDS011;58360;0.000;0.000;2023-07-08T05:23:24;12.38;;;5.68;;
70761;SDS011;58360;0.000;0.000;2023-07-08T05:25:49;10.15;;;5.53;;
70761;SDS011;58360;0.000;0.000;2023-07-08T05:28:15;14.43;;;5.90;;
70761;SDS011;58360;0.000;0.000;2023-07-08T05:30:41;10.68;;;5.25;;
70761;SDS011;58360;0.000;0.000;2023-07-08T05:33:07;10.98;;;5.47;;
70761;SDS011;58360;0.000;0.000;2023-07-08T05:38:19;10.93;;;5.47;;
70761;SDS011;58360;0.000;0.000;2023-07-08T05:40:48;10.00;;;6.20;;
70761;SDS011;58360;0.000;0.000;2023-07-08T05:43:15;11.63;;;5.72;;
70761;SDS011;58360;0.000;0.000;2023-07-08T05:45:41;10.90;;;5.90;;
70761;SDS011;58360;0.000;0.000;2023-07-08T05:48:07;8.60;;;5.57;;
70761;SDS011;58360;0.000;0.000;2023-07-08T05:50:33;12.02;;;6.13;;
70761;SDS011;58360;0.000;0.000;2023-07-08T05:52:58;10.52;;;5.97;;
70761;SDS011;58360;0.000;0.000;2023-07-08T05:55:24;10.15;;;5.78;;
70761;SDS011;58360;0.000;0.000;2023-07-08T06:03:37;10.68;;;6.05;;
70761;SDS011;58360;0.000;0.000;2023-07-08T06:06:03;11.75;;;5.90;;
70761;SDS011;58360;0.000;0.000;2023-07-08T06:08:31;11.93;;;6.97;;
70761;SDS011;58360;0.000;0.000;2023-07-08T06:16:45;12.25;;;6.50;;
70761;SDS011;58360;0.000;0.000;2023-07-08T06:19:11;11.30;;;6.93;;
70761;SDS011;58360;0.000;0.000;2023-07-08T06:21:37;11.35;;;6.93;;
70761;SDS011;58360;0.000;0.000;2023-07-08T06:24:03;14.57;;;7.00;;
70761;SDS011;58360;0.000;0.000;2023-07-08T06:26:29;11.65;;;6.65;;
70761;SDS011;58360;0.000;0.000;2023-07-08T06:28:55;10.80;;;6.25;;
70761;SDS011;58360;0.000;0.000;2023-07-08T06:31:20;11.77;;;6.55;;
70761;SDS011;58360;0.000;0.000;2023-07-08T06:33:46;14.02;;;6.90;;
70761;SDS011;58360;0.000;0.000;2023-07-08T06:36:12;11.70;;;6.97;;
70761;SDS011;58360;0.000;0.000;2023-07-08T06:38:37;12.68;;;7.20;;
70761;SDS011;58360;0.000;0.000;2023-07-08T06:41:03;13.27;;;6.90;;
70761;SDS011;58360;0.000;0.000;2023-07-08T06:43:28;13.93;;;7.13;;
70761;SDS011;58360;0.000;0.000;2023-07-08T06:45:54;12.43;;;7.05;;
70761;SDS011;58360;0.000;0.000;2023-07-08T06:48:20;17.67;;;6.43;;
70761;SDS011;58360;0.000;0.000;2023-07-08T06:50:45;11.65;;;7.18;;
70761;SDS011;58360;0.000;0.000;2023-07-08T06:53:12;10.30;;;6.28;;
70761;SDS011;58360;0.000;0.000;2023-07-08T06:55:38;10.65;;;6.13;;
70761;SDS011;58360;0.000;0.000;2023-07-08T06:58:04;13.35;;;6.57;;
70761;SDS011;58360;0.000;0.000;2023-07-08T07:00:30;13.90;;;6.68;;
70761;SDS011;58360;0.000;0.000;2023-07-08T07:02:55;10.75;;;6.63;;
70761;SDS011;58360;0.000;0.000;2023-07-08T07:12:06;13.45;;;6.25;;
70761;SDS011;58360;0.000;0.000;2023-07-08T07:14:33;9.80;;;6.28;;
70761;SDS011;58360;0.000;0.000;2023-07-08T07:16:59;13.25;;;5.55;;
70761;SDS011;58360;0.000;0.000;2023-07-08T07:19:25;11.02;;;5.88;;
70761;SDS011;58360;0.000;0.000;2023-07-08T07:21:51;10.38;;;6.38;;
70761;SDS011;58360;0.000;0.000;2023-07-08T07:24:17;20.30;;;6.50;;
70761;SDS011;58360;0.000;0.000;2023-07-08T07:26:43;10.57;;;5.80;;
70761;SDS011;58360;0.000;0.000;2023-07-08T07:29:09;16.40;;;6.22;;
70761;SDS011;58360;0.000;0.000;2023-07-08T07:31:37;17.60;;;6.10;;
70761;SDS011;58360;0.000;0.000;2023-07-08T07:34:04;11.32;;;6.10;;
70761;SDS011;58360;0.000;0.000;2023-07-08T07:36:30;16.40;;;6.97;;
70761;SDS011;58360;0.000;0.000;2023-07-08T07:38:56;11.98;;;6.53;;
70761;SDS011;58360;0.000;0.000;2023-07-08T07:41:21;11.48;;;6.20;;
70761;SDS011;58360;0.000;0.000;2023-07-08T07:43:47;9.60;;;6.45;;
70761;SDS011;58360;0.000;0.000;2023-07-08T07:46:13;11.85;;;6.43;;
70761;SDS011;58360;0.000;0.000;2023-07-08T07:48:39;18.42;;;5.97;;
70761;SDS011;58360;0.000;0.000;2023-07-08T07:51:05;12.57;;;5.78;;
70761;SDS011;58360;0.000;0.000;2023-07-08T07:53:32;23.23;;;5.65;;
70761;SDS011;58360;0.000;0.000;2023-07-08T07:55:58;11.05;;;5.90;;
70761;SDS011;58360;0.000;0.000;2023-07-08T07:58:25;10.57;;;5.63;;
70761;SDS011;58360;0.000;0.000;2023-07-08T08:00:51;9.77;;;5.72;;
70761;SDS011;58360;0.000;0.000;2023-07-08T08:03:16;10.55;;;5.25;;
70761;SDS011;58360;0.000;0.000;2023-07-08T08:05:42;9.75;;;5.82;;
70761;SDS011;58360;0.000;0.000;2023-07-08T08:08:08;10.30;;;6.53;;
70761;SDS011;58360;0.000;0.000;2023-07-08T08:10:34;8.13;;;5.40;;
70761;SDS011;58360;0.000;0.000;2023-07-08T08:13:01;11.70;;;5.97;;
70761;SDS011;58360;0.000;0.000;2023-07-08T08:15:28;9.40;;;5.55;;
70761;SDS011;58360;0.000;0.000;2023-07-08T08:17:54;11.20;;;5.97;;
70761;SDS011;58360;0.000;0.000;2023-07-08T08:20:20;10.35;;;5.65;;
70761;SDS011;58360;0.000;0.000;2023-07-08T08:22:48;8.35;;;5.30;;
70761;SDS011;58360;0.000;0.000;2023-07-08T08:25:14;12.15;;;5.25;;
70761;SDS011;58360;0.000;0.000;2023-07-08T08:27:40;9.85;;;5.57;;
70761;SDS011;58360;0.000;0.000;2023-07-08T08:30:06;12.80;;;5.38;;
70761;SDS011;58360;0.000;0.000;2023-07-08T08:32:33;9.68;;;5.45;;
70761;SDS011;58360;0.000;0.000;2023-07-08T08:34:58;12.38;;;5.97;;
70761;SDS011;58360;0.000;0.000;2023-07-08T08:37:24;9.07;;;6.07;;
70761;SDS011;58360;0.000;0.000;2023-07-08T08:39:50;11.80;;;6.03;;
70761;SDS011;58360;0.000;0.000;2023-07-08T08:42:25;8.38;;;5.50;;
70761;SDS011;58360;0.000;0.000;2023-07-08T08:44:53;15.15;;;5.93;;
70761;SDS011;58360;0.000;0.000;2023-07-08T08:47:35;11.60;;;5.95;;
70761;SDS011;58360;0.000;0.000;2023-07-08T08:52:44;8.68;;;5.43;;
70761;SDS011;58360;0.000;0.000;2023-07-08T08:55:13;9.00;;;5.65;;
70761;SDS011;58360;0.000;0.000;2023-07-08T08:57:51;10.48;;;5.68;;
70761;SDS011;58360;0.000;0.000;2023-07-08T09:00:27;8.25;;;5.22;;
70761;SDS011;58360;0.000;0.000;2023-07-08T09:03:01;9.55;;;5.45;;
70761;SDS011;58360;0.000;0.000;2023-07-08T09:05:37;11.52;;;5.88;;
70761;SDS011;58360;0.000;0.000;2023-07-08T09:08:04;9.38;;;5.90;;
70761;SDS011;58360;0.000;0.000;2023-07-08T09:13:32;9.80;;;5.85;;
70761;SDS011;58360;0.000;0.000;2023-07-08T09:16:18;9.68;;;5.47;;
70761;SDS011;58360;0.000;0.000;2023-07-08T09:21:41;7.85;;;5.40;;
70761;SDS011;58360;0.000;0.000;2023-07-08T09:24:49;10.32;;;6.03;;
70761;SDS011;58360;0.000;0.000;2023-07-08T09:27:04;9.63;;;5.35;;
70761;SDS011;58360;0.000;0.000;2023-07-08T09:29:30;13.07;;;6.03;;
70761;SDS011;58360;0.000;0.000;2023-07-08T09:31:57;12.80;;;5.85;;
70761;SDS011;58360;0.000;0.000;2023-07-08T09:34:36;11.25;;;5.63;;
70761;SDS011;58360;0.000;0.000;2023-07-08T09:37:19;8.55;;;5.20;;
70761;SDS011;58360;0.000;0.000;2023-07-08T09:39:47;9.57;;;5.45;;
70761;SDS011;58360;0.000;0.000;2023-07-08T09:42:12;7.50;;;5.07;;
70761;SDS011;58360;0.000;0.000;2023-07-08T09:44:40;11.27;;;5.70;;
70761;SDS011;58360;0.000;0.000;2023-07-08T09:47:17;8.73;;;5.80;;
70761;SDS011;58360;0.000;0.000;2023-07-08T09:49:50;9.50;;;5.53;;
70761;SDS011;58360;0.000;0.000;2023-07-08T09:52:18;7.32;;;5.20;;
70761;SDS011;58360;0.000;0.000;2023-07-08T09:54:45;8.80;;;5.32;;
70761;SDS011;58360;0.000;0.000;2023-07-08T09:57:28;8.65;;;5.28;;
70761;SDS011;58360;0.000;0.000;2023-07-08T09:59:59;9.50;;;5.13;;
70761;SDS011;58360;0.000;0.000;2023-07-08T10:02:30;9.60;;;4.70;;
70761;SDS011;58360;0.000;0.000;2023-07-08T10:05:19;8.88;;;5.70;;
70761;SDS011;58360;0.000;0.000;2023-07-08T10:07:56;14.75;;;5.95;;
70761;SDS011;58360;0.000;0.000;2023-07-08T10:10:24;7.10;;;4.70;;
70761;SDS011;58360;0.000;0.000;2023-07-08T10:12:57;7.60;;;5.53;;
70761;SDS011;58360;0.000;0.000;2023-07-08T10:15:30;10.68;;;5.57;;
70761;SDS011;58360;0.000;0.000;2023-07-08T10:18:27;10.95;;;5.70;;
70761;SDS011;58360;0.000;0.000;2023-07-08T10:23:56;10.10;;;5.57;;
70761;SDS011;58360;0.000;0.000;2023-07-08T10:26:43;7.72;;;5.32;;
70761;SDS011;58360;0.000;0.000;2023-07-08T10:35:12;9.73;;;5.78;;
70761;SDS011;58360;0.000;0.000;2023-07-08T10:40:49;8.15;;;5.05;;
70761;SDS011;58360;0.000;0.000;2023-07-08T10:59:46;9.95;;;4.78;;
70761;SDS011;58360;0.000;0.000;2023-07-08T11:03:03;9.02;;;5.63;;
70761;SDS011;58360;0.000;0.000;2023-07-08T11:05:45;9.27;;;5.50;;
70761;SDS011;58360;0.000;0.000;2023-07-08T11:08:19;8.73;;;4.80;;
70761;SDS011;58360;0.000;0.000;2023-07-08T11:10:48;8.18;;;4.72;;
70761;SDS011;58360;0.000;0.000;2023-07-08T11:13:18;8.98;;;5.43;;
70761;SDS011;58360;0.000;0.000;2023-07-08T11:16:05;8.77;;;5.78;;
70761;SDS011;58360;0.000;0.000;2023-07-08T11:18:42;9.65;;;5.50;;
70761;SDS011;58360;0.000;0.000;2023-07-08T11:21:17;8.82;;;5.20;;
70761;SDS011;58360;0.000;0.000;2023-07-08T11:24:40;9.05;;;5.15;;
70761;SDS011;58360;0.000;0.000;2023-07-08T11:26:54;9.93;;;5.47;;
70761;SDS011;58360;0.000;0.000;2023-07-08T11:32:25;10.63;;;5.32;;
70761;SDS011;58360;0.000;0.000;2023-07-08T11:34:53;10.13;;;5.40;;
70761;SDS011;58360;0.000;0.000;2023-07-08T11:37:21;11.88;;;5.43;;
70761;SDS011;58360;0.000;0.000;2023-07-08T11:42:48;7.63;;;5.15;;
70761;SDS011;58360;0.000;0.000;2023-07-08T11:45:26;10.00;;;5.22;;
70761;SDS011;58360;0.000;0.000;2023-07-08T11:48:10;12.55;;;5.70;;
70761;SDS011;58360;0.000;0.000;2023-07-08T11:50:41;7.95;;;5.60;;
70761;SDS011;58360;0.000;0.000;2023-07-08T11:53:13;9.25;;;5.55;;
70761;SDS011;58360;0.000;0.000;2023-07-08T11:56:00;9.77;;;5.57;;
70761;SDS011;58360;0.000;0.000;2023-07-08T11:58:58;9.35;;;5.25;;
70761;SDS011;58360;0.000;0.000;2023-07-08T12:04:27;8.63;;;5.03;;
70761;SDS011;58360;0.000;0.000;2023-07-08T12:07:17;11.38;;;5.68;;
70761;SDS011;58360;0.000;0.000;2023-07-08T12:09:58;8.13;;;5.20;;
70761;SDS011;58360;0.000;0.000;2023-07-08T12:12:32;8.45;;;5.60;;
70761;SDS011;58360;0.000;0.000;2023-07-08T12:15:05;10.52;;;5.88;;
70761;SDS011;58360;0.000;0.000;2023-07-08T12:17:55;8.18;;;5.43;;
70761;SDS011;58360;0.000;0.000;2023-07-08T12:20:41;10.75;;;5.32;;
70761;SDS011;58360;0.000;0.000;2023-07-08T12:25:54;7.50;;;4.88;;
70761;SDS011;58360;0.000;0.000;2023-07-08T12:28:22;12.60;;;5.50;;
70761;SDS011;58360;0.000;0.000;2023-07-08T12:30:48;9.35;;;5.03;;
70761;SDS011;58360;0.000;0.000;2023-07-08T12:33:19;7.68;;;5.78;;
70761;SDS011;58360;0.000;0.000;2023-07-08T12:35:50;8.85;;;5.05;;
70761;SDS011;58360;0.000;0.000;2023-07-08T12:38:32;7.68;;;4.85;;
70761;SDS011;58360;0.000;0.000;2023-07-08T12:41:07;8.60;;;5.10;;
70761;SDS011;58360;0.000;0.000;2023-07-08T12:43:35;9.48;;;5.47;;
70761;SDS011;58360;0.000;0.000;2023-07-08T12:46:01;9.50;;;5.45;;
70761;SDS011;58360;0.000;0.000;2023-07-08T12:48:34;11.55;;;5.78;;
70761;SDS011;58360;0.000;0.000;2023-07-08T12:51:02;7.63;;;5.55;;
70761;SDS011;58360;0.000;0.000;2023-07-08T12:53:28;8.18;;;5.38;;
70761;SDS011;58360;0.000;0.000;2023-07-08T12:55:55;11.20;;;5.75;;
70761;SDS011;58360;0.000;0.000;2023-07-08T12:58:25;9.68;;;5.63;;
70761;SDS011;58360;0.000;0.000;2023-07-08T13:00:56;11.10;;;6.25;;
70761;SDS011;58360;0.000;0.000;2023-07-08T13:03:29;10.45;;;5.65;;
70761;SDS011;58360;0.000;0.000;2023-07-08T13:05:59;8.55;;;5.50;;
70761;SDS011;58360;0.000;0.000;2023-07-08T13:08:27;12.00;;;6.10;;
70761;SDS011;58360;0.000;0.000;2023-07-08T13:10:59;10.60;;;5.90;;
70761;SDS011;58360;0.000;0.000;2023-07-08T13:13:31;9.77;;;5.40;;
70761;SDS011;58360;0.000;0.000;2023-07-08T13:16:08;9.38;;;5.80;;
70761;SDS011;58360;0.000;0.000;2023-07-08T13:18:39;7.30;;;5.38;;
70761;SDS011;58360;0.000;0.000;2023-07-08T13:21:07;8.40;;;5.05;;
70761;SDS011;58360;0.000;0.000;2023-07-08T13:23:37;11.45;;;5.50;;
70761;SDS011;58360;0.000;0.000;2023-07-08T13:26:13;8.52;;;4.93;;
70761;SDS011;58360;0.000;0.000;2023-07-08T13:28:41;9.48;;;5.22;;
70761;SDS011;58360;0.000;0.000;2023-07-08T13:31:17;12.03;;;5.20;;
70761;SDS011;58360;0.000;0.000;2023-07-08T13:33:54;8.45;;;5.00;;
70761;SDS011;58360;0.000;0.000;2023-07-08T13:36:24;9.20;;;5.20;;
70761;SDS011;58360;0.000;0.000;2023-07-08T13:41:34;15.23;;;4.50;;
70761;SDS011;58360;0.000;0.000;2023-07-08T13:44:06;11.10;;;4.25;;
70761;SDS011;58360;0.000;0.000;2023-07-08T13:49:10;12.75;;;3.88;;
70761;SDS011;58360;0.000;0.000;2023-07-08T13:52:07;7.13;;;3.67;;
70761;SDS011;58360;0.000;0.000;2023-07-08T13:54:48;9.65;;;3.47;;
70761;SDS011;58360;0.000;0.000;2023-07-08T13:57:29;11.13;;;4.10;;
70761;SDS011;58360;0.000;0.000;2023-07-08T13:59:59;10.23;;;3.80;;
70761;SDS011;58360;0.000;0.000;2023-07-08T14:02:27;11.25;;;4.30;;
70761;SDS011;58360;0.000;0.000;2023-07-08T14:04:55;12.02;;;4.43;;
70761;SDS011;58360;0.000;0.000;2023-07-08T14:07:26;8.38;;;3.90;;
70761;SDS011;58360;0.000;0.000;2023-07-08T14:09:54;8.18;;;4.25;;
70761;SDS011;58360;0.000;0.000;2023-07-08T14:12:20;10.38;;;4.40;;
70761;SDS011;58360;0.000;0.000;2023-07-08T14:14:46;8.77;;;4.75;;
70761;SDS011;58360;0.000;0.000;2023-07-08T14:17:13;11.27;;;5.05;;
70761;SDS011;58360;0.000;0.000;2023-07-08T14:19:44;9.45;;;4.65;;
70761;SDS011;58360;0.000;0.000;2023-07-08T14:24:38;8.30;;;4.53;;
70761;SDS011;58360;0.000;0.000;2023-07-08T14:27:05;8.63;;;3.95;;
70761;SDS011;58360;0.000;0.000;2023-07-08T14:29:41;12.35;;;6.03;;
70761;SDS011;58360;0.000;0.000;2023-07-08T14:32:13;12.52;;;4.05;;
70761;SDS011;58360;0.000;0.000;2023-07-08T14:37:46;13.25;;;4.40;;
70761;SDS011;58360;0.000;0.000;2023-07-08T14:40:22;14.13;;;4.00;;
70761;SDS011;58360;0.000;0.000;2023-07-08T14:43:00;11.75;;;4.97;;
70761;SDS011;58360;0.000;0.000;2023-07-08T14:45:32;7.90;;;3.78;;
70761;SDS011;58360;0.000;0.000;2023-07-08T14:48:07;12.57;;;4.22;;
70761;SDS011;58360;0.000;0.000;2023-07-08T14:50:34;11.95;;;4.30;;
70761;SDS011;58360;0.000;0.000;2023-07-08T14:53:00;11.52;;;3.83;;
70761;SDS011;58360;0.000;0.000;2023-07-08T14:55:26;14.30;;;4.53;;
70761;SDS011;58360;0.000;0.000;2023-07-08T14:57:52;7.25;;;3.88;;
70761;SDS011;58360;0.000;0.000;2023-07-08T15:00:18;10.60;;;4.00;;
70761;SDS011;58360;0.000;0.000;2023-07-08T15:02:45;11.30;;;3.63;;
70761;SDS011;58360;0.000;0.000;2023-07-08T15:07:52;10.30;;;4.00;;
70761;SDS011;58360;0.000;0.000;2023-07-08T15:10:19;9.00;;;4.38;;
70761;SDS011;58360;0.000;0.000;2023-07-08T15:12:48;10.10;;;4.13;;
70761;SDS011;58360;0.000;0.000;2023-07-08T15:15:15;10.07;;;3.90;;
70761;SDS011;58360;0.000;0.000;2023-07-08T15:17:43;7.90;;;3.72;;
70761;SDS011;58360;0.000;0.000;2023-07-08T15:20:13;7.10;;;3.83;;
70761;SDS011;58360;0.000;0.000;2023-07-08T15:22:40;10.10;;;3.92;;
70761;SDS011;58360;0.000;0.000;2023-07-08T15:25:08;7.00;;;3.25;;
70761;SDS011;58360;0.000;0.000;2023-07-08T15:27:39;7.15;;;3.40;;
70761;SDS011;58360;0.000;0.000;2023-07-08T15:30:15;7.15;;;3.55;;
70761;SDS011;58360;0.000;0.000;2023-07-08T15:32:43;16.17;;;3.80;;
70761;SDS011;58360;0.000;0.000;2023-07-08T15:35:12;8.75;;;3.50;;
70761;SDS011;58360;0.000;0.000;2023-07-08T15:37:54;7.07;;;3.50;;
70761;SDS011;58360;0.000;0.000;2023-07-08T15:40:21;7.68;;;3.30;;
70761;SDS011;58360;0.000;0.000;2023-07-08T15:42:48;6.57;;;3.30;;
70761;SDS011;58360;0.000;0.000;2023-07-08T15:45:23;8.27;;;3.20;;
70761;SDS011;58360;0.000;0.000;2023-07-08T15:47:53;7.88;;;3.60;;
70761;SDS011;58360;0.000;0.000;2023-07-08T15:50:24;7.07;;;3.30;;
70761;SDS011;58360;0.000;0.000;2023-07-08T15:52:51;6.05;;;3.20;;
70761;SDS011;58360;0.000;0.000;2023-07-08T15:55:21;6.50;;;3.40;;
70761;SDS011;58360;0.000;0.000;2023-07-08T15:57:59;16.48;;;6.95;;
70761;SDS011;58360;0.000;0.000;2023-07-08T16:00:34;5.95;;;3.70;;
70761;SDS011;58360;0.000;0.000;2023-07-08T16:03:13;7.80;;;3.70;;
70761;SDS011;58360;0.000;0.000;2023-07-08T16:05:52;12.60;;;3.65;;
70761;SDS011;58360;0.000;0.000;2023-07-08T16:08:19;7.45;;;3.88;;
70761;SDS011;58360;0.000;0.000;2023-07-08T16:11:31;8.75;;;4.03;;
70761;SDS011;58360;0.000;0.000;2023-07-08T16:13:53;7.25;;;3.53;;
70761;SDS011;58360;0.000;0.000;2023-07-08T16:16:19;8.18;;;4.03;;
70761;SDS011;58360;0.000;0.000;2023-07-08T16:18:46;8.18;;;4.65;;
70761;SDS011;58360;0.000;0.000;2023-07-08T16:21:12;9.75;;;5.30;;
70761;SDS011;58360;0.000;0.000;2023-07-08T16:23:41;9.27;;;5.10;;
70761;SDS011;58360;0.000;0.000;2023-07-08T16:26:08;12.00;;;5.50;;
70761;SDS011;58360;0.000;0.000;2023-07-08T16:28:36;7.85;;;3.65;;
70761;SDS011;58360;0.000;0.000;2023-07-08T16:31:12;8.85;;;4.45;;
70761;SDS011;58360;0.000;0.000;2023-07-08T16:33:40;7.05;;;4.50;;
70761;SDS011;58360;0.000;0.000;2023-07-08T16:36:20;9.65;;;4.22;;
70761;SDS011;58360;0.000;0.000;2023-07-08T16:38:47;8.13;;;3.95;;
70761;SDS011;58360;0.000;0.000;2023-07-08T16:41:14;9.38;;;3.80;;
70761;SDS011;58360;0.000;0.000;2023-07-08T16:43:41;12.25;;;4.50;;
70761;SDS011;58360;0.000;0.000;2023-07-08T16:46:11;10.27;;;3.95;;
70761;SDS011;58360;0.000;0.000;2023-07-08T16:51:14;8.88;;;3.92;;
70761;SDS011;58360;0.000;0.000;2023-07-08T16:53:42;8.85;;;4.40;;
70761;SDS011;58360;0.000;0.000;2023-07-08T16:56:21;10.98;;;4.32;;
70761;SDS011;58360;0.000;0.000;2023-07-08T16:58:47;8.48;;;4.30;;
70761;SDS011;58360;0.000;0.000;2023-07-08T17:01:18;7.78;;;4.13;;
70761;SDS011;58360;0.000;0.000;2023-07-08T17:03:45;12.48;;;4.05;;
70761;SDS011;58360;0.000;0.000;2023-07-08T17:06:11;8.02;;;4.20;;
70761;SDS011;58360;0.000;0.000;2023-07-08T17:08:38;10.40;;;4.40;;
70761;SDS011;58360;0.000;0.000;2023-07-08T17:11:04;7.80;;;4.18;;
70761;SDS011;58360;0.000;0.000;2023-07-08T17:13:30;6.45;;;4.00;;
70761;SDS011;58360;0.000;0.000;2023-07-08T17:15:56;11.40;;;4.88;;
70761;SDS011;58360;0.000;0.000;2023-07-08T17:18:21;9.60;;;5.32;;
70761;SDS011;58360;0.000;0.000;2023-07-08T17:20:49;11.27;;;6.72;;
70761;SDS011;58360;0.000;0.000;2023-07-08T17:23:16;10.20;;;5.00;;
70761;SDS011;58360;0.000;0.000;2023-07-08T17:25:44;8.30;;;4.93;;
70761;SDS011;58360;0.000;0.000;2023-07-08T17:28:10;7.32;;;4.25;;
70761;SDS011;58360;0.000;0.000;2023-07-08T17:30:38;10.23;;;4.63;;
70761;SDS011;58360;0.000;0.000;2023-07-08T17:33:13;9.27;;;4.82;;
70761;SDS011;58360;0.000;0.000;2023-07-08T17:35:40;8.18;;;4.40;;
70761;SDS011;58360;0.000;0.000;2023-07-08T17:38:48;10.45;;;4.70;;
70761;SDS011;58360;0.000;0.000;2023-07-08T17:41:10;12.60;;;5.10;;